Time;durP1;ratioP1;P1;durP2;ratioP2;P2;SDS_P1;SDS_P2;PMS_P1;PMS_P2;Temp;Humidity;BMP_temperature;BMP_pressure;BME280_temperature;BME280_humidity;BME280_pressure;Samples;Min_cycle;Max_cycle;Signal;HPM_P1;HPM_P2
2022/04/04 00:01:26;;;;;;;10.20;3.65;;;;;;;2.77;42.91;98936.84;4428814;32;20464;-87
2022/04/04 00:03:51;;;;;;;10.65;3.42;;;;;;;2.78;42.83;98941.16;4455851;32;20088;-88
2022/04/04 00:06:16;;;;;;;9.27;3.33;;;;;;;2.73;43.13;98943.84;4455696;32;20120;-88
2022/04/04 00:08:42;;;;;;;9.48;3.67;;;;;;;2.65;43.39;98943.16;4455612;32;20081;-88
2022/04/04 00:11:07;;;;;;;12.63;3.65;;;;;;;2.61;43.62;98950.16;4440437;32;20151;-88
2022/04/04 00:13:33;;;;;;;10.57;4.00;;;;;;;2.54;43.63;98944.19;4440207;32;20458;-89
2022/04/04 00:15:58;;;;;;;12.57;3.78;;;;;;;2.68;43.32;98948.28;4440417;32;20112;-88
2022/04/04 00:18:24;;;;;;;12.15;3.80;;;;;;;2.55;43.58;98947.69;4426276;32;20074;-89
2022/04/04 00:20:49;;;;;;;10.48;3.15;;;;;;;2.55;43.93;98950.28;4440169;32;20153;-89
2022/04/04 00:23:16;;;;;;;11.07;3.65;;;;;;;2.75;43.57;98962.88;4440328;32;20338;-90
2022/04/04 00:25:42;;;;;;;10.10;3.47;;;;;;;2.81;43.58;98961.91;4425829;32;20469;-89
2022/04/04 00:28:08;;;;;;;10.68;3.55;;;;;;;2.78;43.26;98948.94;4440058;32;20139;-89
2022/04/04 00:30:33;;;;;;;10.95;3.55;;;;;;;2.54;43.41;98962.41;4436571;32;20437;-90
2022/04/04 00:32:59;;;;;;;10.70;3.67;;;;;;;2.62;43.71;98958.81;4455714;32;20088;-88
2022/04/04 00:35:24;;;;;;;12.32;3.97;;;;;;;2.71;43.29;98958.63;4440774;32;20116;-89
2022/04/04 00:37:52;;;;;;;10.80;3.87;;;;;;;2.64;43.27;98959.63;4454401;32;20111;-89
2022/04/04 00:40:17;;;;;;;9.73;3.70;;;;;;;2.61;43.24;98954.47;4453465;32;20081;-88
2022/04/04 00:42:42;;;;;;;11.00;4.00;;;;;;;2.41;43.85;98954.88;4454585;32;20111;-88
2022/04/04 00:45:08;;;;;;;12.25;3.90;;;;;;;2.40;43.80;98958.38;4440618;32;20092;-89
2022/04/04 00:47:33;;;;;;;11.73;3.97;;;;;;;2.42;43.65;98947.06;4454741;32;20432;-90
2022/04/04 00:50:00;;;;;;;9.90;3.60;;;;;;;2.70;43.21;98947.34;4440078;32;20136;-90
2022/04/04 00:52:26;;;;;;;11.77;3.78;;;;;;;2.69;43.29;98950.00;4454769;32;20093;-91
2022/04/04 00:54:51;;;;;;;10.48;3.50;;;;;;;2.76;43.25;98943.78;4441525;32;20170;-89
2022/04/04 00:57:17;;;;;;;10.57;3.87;;;;;;;2.64;43.29;98944.88;4455674;32;20125;-90
2022/04/04 00:59:43;;;;;;;11.10;3.53;;;;;;;2.50;43.39;98946.91;4455456;32;20125;-91
2022/04/04 01:02:09;;;;;;;10.52;3.80;;;;;;;2.46;43.62;98937.44;4455505;32;20552;-88
2022/04/04 01:04:35;;;;;;;10.77;4.15;;;;;;;2.55;43.46;98942.50;4421393;32;20131;-87
2022/04/04 01:07:01;;;;;;;10.65;3.50;;;;;;;2.65;43.43;98946.59;4439951;32;20103;-90
2022/04/04 01:09:26;;;;;;;13.27;4.37;;;;;;;2.59;43.13;98945.84;4426084;32;20128;-90
2022/04/04 01:12:08;;;;;;;12.00;3.70;;;;;;;2.47;43.36;98949.56;4426009;32;20149;-83
2022/04/04 01:14:45;;;;;;;10.77;3.80;;;;;;;2.55;43.41;98945.09;4426207;32;20096;-86
2022/04/04 01:17:11;;;;;;;10.57;3.85;;;;;;;2.47;43.37;98941.75;4439836;32;20085;-86
2022/04/04 01:19:36;;;;;;;10.55;4.20;;;;;;;2.61;43.21;98944.06;4425896;32;20106;-87
2022/04/04 01:22:06;;;;;;;9.65;3.70;;;;;;;2.67;43.05;98946.59;4439887;32;20117;-86
2022/04/04 01:24:31;;;;;;;11.65;3.70;;;;;;;2.70;42.33;98947.34;4431533;32;20119;-88
2022/04/04 01:26:57;;;;;;;11.35;3.92;;;;;;;2.82;42.57;98948.87;4453938;32;20136;-85
2022/04/04 01:29:23;;;;;;;11.07;4.05;;;;;;;2.65;43.21;98953.56;4455344;32;20404;-91
2022/04/04 01:31:49;;;;;;;9.13;3.47;;;;;;;2.73;42.76;98955.09;4455524;32;20077;-84
2022/04/04 01:34:17;;;;;;;13.23;3.92;;;;;;;2.71;42.75;98959.47;4441514;32;20081;-86
2022/04/04 01:36:43;;;;;;;11.15;3.85;;;;;;;2.84;42.61;98957.50;4454481;32;20111;-90
2022/04/04 01:39:08;;;;;;;10.25;3.85;;;;;;;2.65;42.82;98954.41;4455361;32;20094;-92
2022/04/04 01:41:34;;;;;;;9.98;3.62;;;;;;;2.78;42.65;98955.00;4455485;32;20411;-88
2022/04/04 01:43:59;;;;;;;10.57;4.30;;;;;;;2.72;42.57;98950.81;4440768;32;20111;-89
2022/04/04 01:46:25;;;;;;;12.52;3.62;;;;;;;2.97;41.78;98946.81;4441236;32;20429;-87
2022/04/04 01:48:51;;;;;;;12.57;3.85;;;;;;;2.69;42.20;98948.25;4455453;32;20098;-90
2022/04/04 01:51:17;;;;;;;10.70;3.58;;;;;;;2.75;41.97;98952.47;4441329;32;20164;-88
2022/04/04 01:53:43;;;;;;;10.93;3.97;;;;;;;2.76;42.26;98956.78;4455430;32;20092;-88
2022/04/04 01:56:10;;;;;;;10.48;3.65;;;;;;;2.74;42.10;98955.97;4441352;32;20350;-88
2022/04/04 01:58:38;;;;;;;10.90;3.55;;;;;;;2.70;42.00;98949.94;4455280;32;20090;-88
2022/04/04 02:01:11;;;;;;;10.57;3.50;;;;;;;2.81;41.81;98954.94;4455572;32;20105;-87
2022/04/04 02:03:37;;;;;;;10.10;3.72;;;;;;;2.86;41.74;98949.63;4454053;32;20080;-87
2022/04/04 02:06:03;;;;;;;9.68;3.28;;;;;;;2.85;42.10;98951.41;4425532;32;20115;-88
2022/04/04 02:08:29;;;;;;;9.88;3.37;;;;;;;2.83;42.19;98950.56;4425682;32;20162;-87
2022/04/04 02:10:55;;;;;;;10.88;3.40;;;;;;;2.86;41.96;98955.72;4439565;32;20727;-90
2022/04/04 02:13:23;;;;;;;10.88;3.60;;;;;;;2.85;41.91;98960.94;4425684;32;20092;-90
2022/04/04 02:15:48;;;;;;;;;;;;;;;2.91;41.68;98956.47;4426165;32;20085;-88
2022/04/04 02:18:13;;;;;;;10.57;3.37;;;;;;;2.93;41.99;98956.44;4425786;32;19991;-89
2022/04/04 02:20:39;;;;;;;9.75;3.50;;;;;;;2.84;42.02;98948.81;4439488;32;20112;-87
2022/04/04 02:23:05;;;;;;;9.65;3.40;;;;;;;2.73;42.23;98951.66;4439515;32;20081;-87
2022/04/04 02:25:30;;;;;;;13.25;3.83;;;;;;;2.90;42.04;98952.16;4449766;32;20081;-86
2022/04/04 02:27:56;;;;;;;9.95;3.87;;;;;;;2.79;42.69;98958.47;4454739;32;20108;-86
2022/04/04 02:30:21;;;;;;;9.00;3.42;;;;;;;2.78;43.00;98948.94;4454759;32;20089;-87
2022/04/04 02:32:47;;;;;;;10.50;4.10;;;;;;;2.86;42.54;98950.53;4454874;32;20177;-88
2022/04/04 02:35:12;;;;;;;11.75;4.22;;;;;;;2.87;42.54;98957.41;4454961;32;20412;-87
2022/04/04 02:37:38;;;;;;;10.35;4.05;;;;;;;2.94;42.55;98952.97;4440584;32;20127;-87
2022/04/04 02:40:05;;;;;;;10.55;3.85;;;;;;;2.85;42.61;98955.75;4454458;32;20110;-86
2022/04/04 02:42:31;;;;;;;9.75;3.47;;;;;;;3.01;43.00;98953.69;4454819;32;20093;-86
2022/04/04 02:44:57;;;;;;;10.07;3.47;;;;;;;2.97;42.72;98952.03;4452621;32;20325;-85
2022/04/04 02:47:22;;;;;;;12.35;3.72;;;;;;;3.06;42.46;98960.50;4454004;32;20432;-85
2022/04/04 02:49:47;;;;;;;9.05;3.62;;;;;;;2.95;42.39;98957.25;4454444;32;20154;-85
2022/04/04 02:52:13;;;;;;;10.07;3.75;;;;;;;2.87;41.77;98956.56;4454621;32;20101;-87
2022/04/04 02:54:38;;;;;;;10.88;3.97;;;;;;;2.93;41.66;98957.28;4454507;32;20077;-86
2022/04/04 02:57:05;;;;;;;11.35;3.95;;;;;;;2.87;41.69;98964.37;4454668;32;20107;-87
2022/04/04 02:59:30;;;;;;;11.07;4.10;;;;;;;2.98;41.38;98962.41;4440842;32;20174;-85
2022/04/04 03:01:56;;;;;;;11.43;4.18;;;;;;;2.81;41.85;98967.97;4454530;32;20089;-88
2022/04/04 03:04:21;;;;;;;10.60;3.95;;;;;;;2.75;42.11;98968.09;4453795;32;20109;-88
2022/04/04 03:06:47;;;;;;;10.75;3.87;;;;;;;2.82;42.35;98968.81;4440229;32;20439;-86
2022/04/04 03:09:12;;;;;;;10.90;3.90;;;;;;;2.87;42.31;98966.97;4454742;32;20085;-88
2022/04/04 03:11:38;;;;;;;11.52;3.80;;;;;;;2.90;42.42;98961.72;4440432;32;20382;-86
2022/04/04 03:14:04;;;;;;;11.25;4.20;;;;;;;2.85;42.41;98968.75;4454341;32;20322;-87
2022/04/04 03:16:29;;;;;;;11.38;3.50;;;;;;;2.92;42.13;98966.00;4440330;32;20104;-87
2022/04/04 03:18:55;;;;;;;12.02;3.78;;;;;;;2.85;42.34;98971.34;4440216;32;20111;-87
2022/04/04 03:21:21;;;;;;;8.80;3.42;;;;;;;2.84;41.99;98965.31;4440196;32;20145;-88
2022/04/04 03:23:47;;;;;;;11.77;4.05;;;;;;;2.84;42.15;98973.13;4439871;32;20420;-87
2022/04/04 03:26:13;;;;;;;9.00;3.42;;;;;;;2.97;41.52;98965.88;4438688;32;20101;-89
2022/04/04 03:28:39;;;;;;;9.43;3.35;;;;;;;2.90;41.19;98967.78;4424690;32;20093;-88
2022/04/04 03:31:05;;;;;;;11.15;3.65;;;;;;;2.88;41.41;98973.91;4439113;32;20131;-88
2022/04/04 03:33:31;;;;;;;10.55;3.60;;;;;;;2.97;40.85;98972.84;4429559;32;20105;-88
2022/04/04 03:35:58;;;;;;;9.65;3.60;;;;;;;2.91;41.15;98969.47;4440062;32;20125;-88
2022/04/04 03:38:24;;;;;;;9.85;3.80;;;;;;;2.91;40.67;98966.88;4454251;32;20089;-88
2022/04/04 03:40:51;;;;;;;9.40;3.83;;;;;;;2.87;40.90;98965.22;4453461;32;20124;-88
2022/04/04 03:43:16;;;;;;;11.95;4.35;;;;;;;2.98;40.84;98966.78;4440045;32;20445;-88
2022/04/04 03:45:42;;;;;;;9.88;3.65;;;;;;;2.93;41.12;98974.66;4453765;32;20089;-88
2022/04/04 03:48:08;;;;;;;10.70;3.92;;;;;;;2.90;41.25;98974.72;4440301;32;20105;-88
2022/04/04 03:50:34;;;;;;;9.20;3.47;;;;;;;2.94;41.55;98974.63;4439798;32;20089;-89
2022/04/04 03:52:59;;;;;;;10.18;3.65;;;;;;;2.90;42.09;98978.19;4453908;32;20124;-88
2022/04/04 03:55:29;;;;;;;10.02;3.30;;;;;;;2.92;42.35;98980.75;4426922;32;20526;-88
2022/04/04 03:57:55;;;;;;;10.35;3.58;;;;;;;2.95;42.79;98978.97;4439914;32;20489;-88
2022/04/04 04:00:22;;;;;;;9.73;3.35;;;;;;;2.95;43.35;98981.56;4429906;32;20105;-88
2022/04/04 04:02:48;;;;;;;10.43;3.75;;;;;;;3.00;43.79;98984.06;4426718;32;20385;-88
2022/04/04 04:05:14;;;;;;;10.60;4.07;;;;;;;3.01;44.01;98987.50;4440788;32;20090;-87
2022/04/04 04:07:40;;;;;;;11.07;3.92;;;;;;;2.95;43.22;98989.38;4440677;32;20101;-89
2022/04/04 04:10:06;;;;;;;11.55;3.20;;;;;;;2.91;43.44;98994.66;4426718;32;20097;-89
2022/04/04 04:12:32;;;;;;;12.32;3.85;;;;;;;2.93;43.75;98993.72;4426698;32;20116;-89
2022/04/04 04:14:58;;;;;;;10.52;3.40;;;;;;;2.93;43.59;98993.72;4440447;32;20101;-88
2022/04/04 04:17:24;;;;;;;10.00;3.22;;;;;;;2.69;42.44;98995.06;4426530;32;20351;-87
2022/04/04 04:22:35;;;;;;;9.82;3.40;;;;;;;2.91;43.20;98995.50;4455948;32;20141;-88
2022/04/04 04:25:01;;;;;;;11.75;4.15;;;;;;;2.98;43.18;98993.66;4441825;32;20364;-87
2022/04/04 04:27:27;;;;;;;10.52;3.22;;;;;;;3.05;43.26;98986.56;4442017;32;20101;-88
2022/04/04 04:29:52;;;;;;;8.57;3.30;;;;;;;3.01;42.32;98990.13;4441908;32;20111;-87
2022/04/04 04:32:18;;;;;;;9.35;3.10;;;;;;;2.87;41.46;98988.66;4456125;32;20081;-88
2022/04/04 04:34:46;;;;;;;9.55;3.53;;;;;;;2.98;41.48;98993.66;4455810;32;20145;-88
2022/04/04 04:37:13;;;;;;;10.95;3.40;;;;;;;3.00;41.66;98994.47;4441513;32;20100;-89
2022/04/04 04:39:39;;;;;;;10.77;3.58;;;;;;;3.11;41.83;98991.62;4449137;32;20089;-88
2022/04/04 04:42:05;;;;;;;9.73;3.20;;;;;;;3.15;42.46;98988.09;4455610;32;20107;-89
2022/04/04 04:44:30;;;;;;;11.52;3.72;;;;;;;3.22;43.12;98992.25;4455714;32;20121;-91
2022/04/04 04:46:56;;;;;;;9.57;3.37;;;;;;;3.28;43.68;98993.88;4441612;32;20128;-88
2022/04/04 04:49:22;;;;;;;11.10;3.80;;;;;;;3.39;44.49;98988.44;4455574;32;20085;-89
2022/04/04 04:51:48;;;;;;;13.15;3.78;;;;;;;3.46;44.54;98987.44;4455823;32;20111;-86
2022/04/04 04:54:13;;;;;;;9.52;3.30;;;;;;;3.53;44.63;98995.06;4451738;32;20102;-87
2022/04/04 04:56:39;;;;;;;11.43;3.65;;;;;;;3.60;44.07;98985.34;4426044;32;20101;-87
2022/04/04 04:59:04;;;;;;;10.23;3.30;;;;;;;3.74;43.09;98995.44;4440056;32;20384;-87
2022/04/04 05:01:29;;;;;;;8.35;2.90;;;;;;;3.87;42.80;98991.66;4440146;32;20440;-86
2022/04/04 05:03:55;;;;;;;10.32;3.42;;;;;;;4.02;42.34;98997.38;4440018;32;20141;-86
2022/04/04 05:06:21;;;;;;;9.80;3.42;;;;;;;4.09;41.16;98994.56;4425825;32;20381;-86
2022/04/04 05:08:46;;;;;;;10.48;3.47;;;;;;;4.25;41.10;98994.19;4439622;32;20092;-91
2022/04/04 05:11:12;;;;;;;10.35;3.42;;;;;;;4.45;40.34;98991.09;4439600;32;20077;-88
2022/04/04 05:13:37;;;;;;;12.20;3.55;;;;;;;4.60;40.77;98989.81;4426052;32;20145;-88
2022/04/04 05:16:08;;;;;;;9.52;3.55;;;;;;;4.72;39.24;98995.56;4444073;32;20120;-89
2022/04/04 05:18:34;;;;;;;10.05;3.75;;;;;;;4.78;38.10;98991.06;4426754;32;20111;-89
2022/04/04 05:20:59;;;;;;;10.77;3.20;;;;;;;4.89;36.51;98994.25;4440046;32;20425;-88
2022/04/04 05:23:25;;;;;;;11.68;3.60;;;;;;;4.96;36.47;98990.53;4439799;32;20073;-89
2022/04/04 05:25:50;;;;;;;9.82;3.40;;;;;;;5.05;36.53;98997.25;4439791;32;20081;-89
2022/04/04 05:28:15;;;;;;;9.85;3.65;;;;;;;5.23;35.94;99001.09;4426127;32;20084;-89
2022/04/04 05:30:41;;;;;;;10.23;3.85;;;;;;;5.39;35.56;98997.13;4445293;32;20089;-87
2022/04/04 05:33:09;;;;;;;11.98;3.70;;;;;;;5.44;35.49;98996.97;4441083;32;20106;-89
2022/04/04 05:35:35;;;;;;;10.18;3.67;;;;;;;5.49;35.57;99001.16;4455621;32;20101;-89
2022/04/04 05:38:00;;;;;;;10.07;3.47;;;;;;;5.59;34.74;99003.50;4455589;32;20467;-89
2022/04/04 05:40:26;;;;;;;11.88;3.75;;;;;;;5.73;35.22;99003.91;4455193;32;20482;-89
2022/04/04 05:42:52;;;;;;;11.73;3.90;;;;;;;5.75;34.87;99004.72;4455428;32;20135;-89
2022/04/04 05:45:18;;;;;;;11.30;4.50;;;;;;;6.00;34.79;99003.97;4441638;32;20093;-90
2022/04/04 05:47:44;;;;;;;10.32;3.78;;;;;;;6.03;34.54;99006.50;4455532;32;20142;-88
2022/04/04 05:50:10;;;;;;;11.38;4.47;;;;;;;6.13;34.94;99009.69;4454343;32;20448;-91
2022/04/04 05:52:36;;;;;;;12.23;4.25;;;;;;;6.26;34.75;99003.13;4439731;32;20115;-92
2022/04/04 05:55:05;;;;;;;12.13;4.28;;;;;;;6.20;34.61;99009.41;4439569;32;20116;-88
2022/04/04 05:57:35;;;;;;;11.23;4.53;;;;;;;6.19;34.54;99010.31;4439800;32;20149;-90
2022/04/04 06:00:00;;;;;;;11.90;4.57;;;;;;;6.36;35.09;99011.53;4439527;32;20472;-89
2022/04/04 06:02:28;;;;;;;11.35;4.50;;;;;;;6.33;35.13;99011.63;4423363;32;85187;-88
2022/04/04 06:04:55;;;;;;;9.80;3.78;;;;;;;6.45;34.80;99011.19;4439776;32;20442;-90
2022/04/04 06:07:21;;;;;;;10.70;4.28;;;;;;;6.63;34.29;99009.72;4425727;32;20112;-90
2022/04/04 06:09:47;;;;;;;10.52;4.20;;;;;;;6.64;34.85;99011.41;4439743;32;20418;-90
2022/04/04 06:12:12;;;;;;;10.73;4.20;;;;;;;6.80;34.62;99011.72;4426388;32;20105;-91
2022/04/04 06:14:38;;;;;;;10.48;3.83;;;;;;;6.66;34.24;99018.31;4439794;32;20493;-88
2022/04/04 06:17:07;;;;;;;11.02;4.40;;;;;;;6.59;34.54;99014.19;4439433;32;20121;-88
2022/04/04 06:19:34;;;;;;;11.50;4.57;;;;;;;6.79;34.80;99016.09;4425742;32;20081;-88
2022/04/04 06:22:00;;;;;;;10.40;3.92;;;;;;;6.87;34.49;99018.47;4425363;32;20582;-89
2022/04/04 06:24:25;;;;;;;12.45;4.80;;;;;;;6.87;34.38;99023.69;4438712;32;20109;-89
2022/04/04 06:26:51;;;;;;;9.93;3.70;;;;;;;6.95;34.08;99026.03;4450703;32;20089;-89
2022/04/04 06:29:16;;;;;;;10.02;3.53;;;;;;;7.01;33.40;99028.44;4454750;32;20119;-88
2022/04/04 06:31:43;;;;;;;11.85;3.83;;;;;;;7.28;33.05;99029.19;4454781;32;20109;-88
2022/04/04 06:34:08;;;;;;;10.20;3.58;;;;;;;7.36;32.50;99029.78;4454862;32;20565;-88
2022/04/04 06:36:34;;;;;;;11.12;3.58;;;;;;;6.83;32.89;99030.81;4454578;32;20109;-89
2022/04/04 06:38:59;;;;;;;9.88;3.42;;;;;;;7.36;32.81;99029.78;4454845;32;20108;-89
2022/04/04 06:41:25;;;;;;;9.38;3.10;;;;;;;7.41;31.57;99030.44;4454721;32;20240;-88
2022/04/04 06:43:54;;;;;;;10.85;3.50;;;;;;;7.53;31.82;99036.97;4440668;32;20109;-88
2022/04/04 06:46:19;;;;;;;9.55;3.28;;;;;;;7.68;30.37;99023.28;4444477;32;20089;-88
2022/04/04 06:48:50;;;;;;;9.52;3.58;;;;;;;7.46;29.88;99022.41;4439152;32;20425;-88
2022/04/04 06:51:16;;;;;;;11.80;3.85;;;;;;;7.41;30.62;99026.97;4441193;32;20108;-88
2022/04/04 06:53:42;;;;;;;8.80;3.65;;;;;;;7.48;30.84;99041.56;4454541;32;20616;-88
2022/04/04 06:56:07;;;;;;;9.27;3.08;;;;;;;7.65;30.34;99033.91;4454785;32;20153;-89
2022/04/04 06:58:33;;;;;;;9.75;3.47;;;;;;;7.75;29.04;99029.16;4427640;32;20138;-89
2022/04/04 07:00:59;;;;;;;10.60;3.60;;;;;;;7.67;30.02;99037.31;4454124;32;20153;-89
2022/04/04 07:03:24;;;;;;;9.57;3.50;;;;;;;7.74;31.04;99037.06;4454431;32;20460;-88
2022/04/04 07:05:50;;;;;;;11.95;4.28;;;;;;;7.59;30.21;99044.62;4447627;32;20444;-90
2022/04/04 07:08:15;;;;;;;10.93;4.15;;;;;;;7.44;30.81;99042.59;4439022;32;20069;-88
2022/04/04 07:10:42;;;;;;;9.13;3.80;;;;;;;7.58;30.84;99042.06;4439056;32;20109;-88
2022/04/04 07:13:08;;;;;;;10.17;3.87;;;;;;;7.68;30.36;99040.78;4449783;32;20097;-87
2022/04/04 07:15:33;;;;;;;9.70;3.70;;;;;;;7.79;29.35;99035.13;4440049;32;20108;-86
2022/04/04 07:17:59;;;;;;;11.48;3.97;;;;;;;7.82;29.49;99032.37;4454220;32;20373;-86
2022/04/04 07:20:25;;;;;;;9.68;3.53;;;;;;;7.87;28.88;99031.28;4427030;32;20128;-90
2022/04/04 07:22:51;;;;;;;9.93;3.78;;;;;;;7.83;29.32;99024.44;4454229;32;20117;-91
2022/04/04 07:25:16;;;;;;;9.55;3.83;;;;;;;7.93;28.98;99022.31;4444485;32;20089;-92
2022/04/04 07:27:44;;;;;;;10.52;3.53;;;;;;;8.01;28.44;99030.72;4424813;32;20101;-86
2022/04/04 07:30:11;;;;;;;;;;;;;;;8.03;29.13;99030.66;4438765;32;20094;-91
2022/04/04 07:32:38;;;;;;;12.35;3.95;;;;;;;8.27;30.26;99026.22;4438882;32;19985;-89
2022/04/04 07:35:04;;;;;;;9.82;3.83;;;;;;;7.97;28.56;99030.91;4453155;32;20116;-89
2022/04/04 07:37:30;;;;;;;8.77;3.08;;;;;;;8.24;28.32;99024.53;4455929;32;20136;-89
2022/04/04 07:39:55;;;;;;;9.85;3.17;;;;;;;8.27;27.77;99034.06;4454185;32;20448;-89
2022/04/04 07:42:21;;;;;;;9.45;3.30;;;;;;;8.33;27.90;99022.47;4454537;32;20093;-88
2022/04/04 07:44:46;;;;;;;8.32;3.20;;;;;;;8.57;27.82;99031.09;4440043;32;20146;-87
2022/04/04 07:47:11;;;;;;;9.98;3.70;;;;;;;8.49;27.04;99036.69;4453387;32;20146;-88
2022/04/04 07:49:37;;;;;;;10.20;3.80;;;;;;;8.40;27.37;99034.41;4441408;32;20164;-88
2022/04/04 07:52:03;;;;;;;9.30;3.60;;;;;;;8.55;27.99;99027.69;4455855;32;20154;-88
2022/04/04 07:54:29;;;;;;;8.85;3.20;;;;;;;8.58;28.20;99030.22;4441399;32;20132;-92
2022/04/04 07:56:56;;;;;;;9.68;4.10;;;;;;;8.46;28.04;99028.97;4441752;32;20435;-87
2022/04/04 07:59:22;;;;;;;10.10;3.90;;;;;;;8.56;27.68;99022.38;4440852;32;20177;-88
2022/04/04 08:01:47;;;;;;;9.38;3.60;;;;;;;8.55;27.53;99022.44;4454389;32;20236;-90
2022/04/04 08:04:13;;;;;;;10.25;3.20;;;;;;;8.47;27.60;99022.78;4440021;32;20100;-88
2022/04/04 08:06:38;;;;;;;12.75;5.00;;;;;;;8.39;27.68;99030.09;4453997;32;20157;-88
2022/04/04 08:09:04;;;;;;;10.18;3.60;;;;;;;8.68;27.69;99012.28;4454296;32;20138;-86
2022/04/04 08:11:29;;;;;;;9.15;3.30;;;;;;;8.10;28.05;99031.28;4454377;32;20096;-93
2022/04/04 08:13:54;;;;;;;9.00;3.20;;;;;;;8.37;27.71;99026.69;4441944;32;20119;-91
2022/04/04 08:16:22;;;;;;;8.07;3.25;;;;;;;8.17;27.72;99023.09;4455250;32;20108;-92
2022/04/04 08:18:48;;;;;;;9.70;3.45;;;;;;;8.31;28.80;99019.91;4453815;32;20109;-90
2022/04/04 08:21:15;;;;;;;9.65;3.58;;;;;;;8.46;28.07;99016.69;4454640;32;20457;-91
2022/04/04 08:23:41;;;;;;;9.63;3.55;;;;;;;8.42;28.42;99019.47;4456026;32;20143;-89
2022/04/04 08:26:06;;;;;;;9.80;3.78;;;;;;;8.50;29.55;99011.28;4454913;32;20089;-91
2022/04/04 08:28:32;;;;;;;10.07;3.60;;;;;;;8.44;28.98;99020.25;4454624;32;20161;-91
2022/04/04 08:30:57;;;;;;;9.18;3.25;;;;;;;8.48;28.58;99021.00;4440244;32;20492;-92
2022/04/04 08:33:24;;;;;;;8.43;3.10;;;;;;;8.43;29.14;99015.94;4454418;32;20100;-88
2022/04/04 08:35:53;;;;;;;9.95;4.00;;;;;;;8.54;28.97;99016.34;4454218;32;20088;-90
2022/04/04 08:38:19;;;;;;;8.60;3.45;;;;;;;8.43;29.16;99014.16;4440490;32;20069;-91
2022/04/04 08:40:45;;;;;;;9.82;3.65;;;;;;;8.00;28.47;99005.41;4454951;32;20127;-92
2022/04/04 08:43:11;;;;;;;9.82;3.55;;;;;;;8.35;29.13;99010.13;4441520;32;20089;-89
2022/04/04 08:45:42;;;;;;;11.18;3.60;;;;;;;8.60;29.94;99005.56;4455685;32;20581;-90
2022/04/04 08:48:08;;;;;;;10.20;4.00;;;;;;;8.81;29.02;99001.16;4455323;32;20077;-88
2022/04/04 08:50:35;;;;;;;8.32;3.35;;;;;;;8.81;28.88;98995.91;4455734;32;20148;-89
2022/04/04 08:53:02;;;;;;;11.98;3.90;;;;;;;8.76;28.08;98991.78;4455758;32;20119;-90
2022/04/04 08:55:28;;;;;;;8.65;3.62;;;;;;;8.56;27.69;98993.50;4455706;32;20597;-88
2022/04/04 08:57:55;;;;;;;8.82;3.30;;;;;;;8.63;29.04;98994.94;4455631;32;20093;-88
2022/04/04 09:00:21;;;;;;;10.32;3.90;;;;;;;8.70;29.18;98994.69;4448292;32;20156;-89
2022/04/04 09:02:58;;;;;;;11.07;4.45;;;;;;;8.64;29.89;98983.50;4425879;32;20142;-90
2022/04/04 09:05:24;;;;;;;13.30;4.50;;;;;;;8.73;29.17;98987.53;4440069;32;20098;-89
2022/04/04 09:08:00;;;;;;;11.12;4.78;;;;;;;8.56;30.36;98982.16;4426229;32;20607;-90
2022/04/04 09:10:36;;;;;;;12.35;4.57;;;;;;;8.20;31.11;98985.38;4440125;32;20109;-90
2022/04/04 09:13:09;;;;;;;11.50;4.45;;;;;;;8.55;31.05;98977.81;4425944;32;20117;-93
2022/04/04 09:15:53;;;;;;;12.57;5.20;;;;;;;8.25;31.52;98981.66;4440315;32;20161;-93
2022/04/04 09:18:19;;;;;;;12.50;5.28;;;;;;;8.39;31.42;98967.94;4439995;32;20101;-93
2022/04/04 09:20:49;;;;;;;11.60;4.95;;;;;;;8.34;31.88;98963.78;4451010;32;20792;-93
2022/04/04 09:23:15;;;;;;;11.52;4.75;;;;;;;8.25;32.67;98973.78;4455474;32;20431;-95
2022/04/04 09:25:40;;;;;;;11.15;4.68;;;;;;;8.22;31.43;98967.78;4441158;32;20143;-94
2022/04/04 09:28:19;;;;;;;13.70;5.43;;;;;;;8.31;31.65;98964.78;4450095;32;20141;-91
2022/04/04 09:31:06;;;;;;;11.52;5.03;;;;;;;8.17;32.52;98968.00;4439688;32;20189;-90
2022/04/04 09:33:39;;;;;;;11.77;4.85;;;;;;;8.31;32.35;98950.81;4439944;32;20108;-92
2022/04/04 09:36:06;;;;;;;12.25;4.97;;;;;;;8.45;33.74;98951.09;4452607;32;20089;-91
2022/04/04 09:38:34;;;;;;;12.88;5.40;;;;;;;8.69;32.71;98935.19;4455444;32;20436;-93
2022/04/04 09:41:19;;;;;;;10.57;4.57;;;;;;;8.77;32.80;98943.56;4440096;32;20101;-91
2022/04/04 09:43:52;;;;;;;12.30;4.87;;;;;;;8.79;32.83;98934.72;4452160;32;20180;-91
2022/04/04 09:46:17;;;;;;;11.60;4.87;;;;;;;8.76;32.98;98940.09;4440422;32;20105;-90
2022/04/04 09:49:01;;;;;;;11.82;5.03;;;;;;;8.88;31.54;98936.06;4454709;32;20105;-90
2022/04/04 09:51:50;;;;;;;11.90;5.10;;;;;;;8.56;31.48;98932.25;4454475;32;20487;-89
2022/04/04 09:54:23;;;;;;;11.55;5.22;;;;;;;8.65;31.68;98926.59;4427024;32;20179;-89
2022/04/04 09:56:50;;;;;;;12.88;5.45;;;;;;;8.67;32.57;98930.00;4440798;32;20118;-89
2022/04/04 09:59:17;;;;;;;11.98;5.40;;;;;;;8.71;32.54;98922.84;4439722;32;20096;-89
2022/04/04 10:01:45;;;;;;;12.05;5.35;;;;;;;8.81;33.42;98921.53;4454472;32;20108;-89
2022/04/04 10:04:14;;;;;;;11.35;5.40;;;;;;;8.77;32.65;98922.56;4440034;32;20093;-89
2022/04/04 10:06:42;;;;;;;11.60;4.93;;;;;;;8.92;32.48;98918.37;4440385;32;20496;-89
2022/04/04 10:09:08;;;;;;;11.82;5.28;;;;;;;8.81;33.04;98911.00;4454877;32;20101;-89
2022/04/04 10:11:36;;;;;;;13.30;5.60;;;;;;;9.07;32.97;98914.22;4454006;32;20123;-89
2022/04/04 10:14:02;;;;;;;13.82;5.80;;;;;;;9.25;33.08;98906.31;4440855;32;20081;-88
2022/04/04 10:16:30;;;;;;;11.32;5.00;;;;;;;9.38;32.26;98898.69;4454066;32;21723;-92
2022/04/04 10:18:57;;;;;;;13.07;5.43;;;;;;;9.12;32.52;98899.09;4440710;32;20113;-87
2022/04/04 10:21:23;;;;;;;12.93;4.90;;;;;;;9.13;31.75;98895.53;4440514;32;20123;-86
2022/04/04 10:23:53;;;;;;;12.68;5.00;;;;;;;9.43;32.97;98901.09;4454435;32;20130;-86
2022/04/04 10:26:21;;;;;;;11.80;5.05;;;;;;;9.43;32.53;98888.81;4436309;32;20098;-89
2022/04/04 10:28:47;;;;;;;11.50;4.95;;;;;;;9.72;32.25;98890.94;4449752;32;20918;-88
2022/04/04 10:31:21;;;;;;;12.20;4.90;;;;;;;9.81;31.41;98878.19;4438547;32;20105;-88
2022/04/04 10:33:50;;;;;;;12.25;5.40;;;;;;;10.00;31.55;98877.25;4450376;32;20210;-89
2022/04/04 10:36:22;;;;;;;12.60;5.20;;;;;;;9.57;30.96;98880.25;4438665;32;20167;-88
2022/04/04 10:38:51;;;;;;;9.98;4.70;;;;;;;9.97;30.57;98870.38;4450728;32;20101;-86
2022/04/04 10:41:26;;;;;;;11.10;4.72;;;;;;;10.41;30.13;98866.37;4453006;32;20092;-86
2022/04/04 10:43:53;;;;;;;11.82;5.25;;;;;;;9.98;29.81;98863.31;4450539;32;20187;-86
2022/04/04 10:46:20;;;;;;;12.20;4.93;;;;;;;10.40;29.21;98856.78;4448180;32;20416;-88
2022/04/04 10:48:50;;;;;;;12.23;5.00;;;;;;;10.53;29.03;98855.22;4423795;32;20113;-89
2022/04/04 10:51:36;;;;;;;11.73;4.37;;;;;;;10.54;28.94;98856.06;4435873;32;20135;-90
2022/04/04 10:54:05;;;;;;;11.80;4.62;;;;;;;10.84;28.98;98847.44;4437430;32;20089;-92
2022/04/04 10:56:38;;;;;;;10.25;4.32;;;;;;;10.65;28.66;98842.31;4453096;32;20444;-93
2022/04/04 10:59:16;;;;;;;11.20;4.85;;;;;;;10.90;27.48;98836.56;4437575;32;20133;-89
2022/04/04 11:01:46;;;;;;;10.70;4.35;;;;;;;11.07;28.27;98831.22;4452121;32;20580;-89
2022/04/04 11:04:32;;;;;;;11.02;4.45;;;;;;;11.09;28.30;98834.59;4451295;32;20093;-89
2022/04/04 11:09:55;;;;;;;11.23;3.85;;;;;;;11.69;27.62;98820.63;4452284;32;20531;-88
2022/04/04 11:12:28;;;;;;;9.68;3.90;;;;;;;11.67;27.75;98817.22;4458293;32;20085;-89
2022/04/04 11:15:06;;;;;;;12.55;4.40;;;;;;;11.87;27.76;98821.31;4442642;32;20093;-86
2022/04/04 11:17:33;;;;;;;12.07;4.43;;;;;;;11.81;27.61;98821.69;4439245;32;20132;-89
2022/04/04 11:20:10;;;;;;;11.63;4.68;;;;;;;11.80;27.15;98819.97;4459463;32;20186;-85
2022/04/04 11:22:41;;;;;;;10.57;4.03;;;;;;;11.70;27.00;98824.09;4442015;32;20093;-92
2022/04/04 11:25:13;;;;;;;9.13;4.05;;;;;;;11.79;27.66;98829.69;4441173;32;20097;-89
2022/04/04 11:27:40;;;;;;;10.07;4.03;;;;;;;11.89;27.85;98818.59;4443672;32;20400;-88
2022/04/04 11:30:10;;;;;;;10.25;3.85;;;;;;;12.24;28.08;98816.50;4443303;32;20105;-88
2022/04/04 11:32:43;;;;;;;10.43;3.80;;;;;;;12.58;26.22;98806.50;4443591;32;20687;-87
2022/04/04 11:35:09;;;;;;;9.82;3.95;;;;;;;12.65;26.80;98810.47;4458667;32;20373;-89
2022/04/04 11:37:50;;;;;;;11.00;4.62;;;;;;;12.67;26.46;98805.94;4459046;32;20106;-88
2022/04/04 11:40:23;;;;;;;10.00;4.65;;;;;;;12.41;26.88;98806.72;4443744;32;20139;-89
2022/04/04 11:42:51;;;;;;;11.00;4.72;;;;;;;12.45;27.58;98808.22;4458251;32;20113;-89